Time;durP1;ratioP1;P1;durP2;ratioP2;P2;SDS_P1;SDS_P2;PMS_P1;PMS_P2;Temp;Humidity;BMP_temperature;BMP_pressure;BME280_temperature;BME280_humidity;BME280_pressure;Samples;Min_cycle;Max_cycle;Signal;HPM_P1;HPM_P2
2023/12/22 00:02:41;;;;;;;17.58;3.33;;;;;;;5.14;100.00;99822.13;4987406;28;20061;-74
2023/12/22 00:05:26;;;;;;;9.55;1.83;;;;;;;5.10;100.00;99826.63;4994909;28;20108;-74
2023/12/22 00:08:11;;;;;;;12.40;2.33;;;;;;;5.12;100.00;99842.31;4986760;28;20092;-74
2023/12/22 00:10:57;;;;;;;12.02;1.90;;;;;;;4.87;100.00;99820.53;4987757;28;20094;-72
2023/12/22 00:13:42;;;;;;;14.73;2.22;;;;;;;4.65;100.00;99830.94;4979848;28;21055;-72
2023/12/22 00:16:28;;;;;;;12.25;2.20;;;;;;;4.34;100.00;99805.84;4986191;28;20049;-73
2023/12/22 00:19:13;;;;;;;10.60;1.90;;;;;;;4.19;100.00;99812.47;4983866;28;20162;-73
2023/12/22 00:21:59;;;;;;;15.07;2.15;;;;;;;4.14;100.00;99810.03;4982884;28;21389;-74
2023/12/22 00:24:44;;;;;;;15.07;2.47;;;;;;;4.19;100.00;99815.09;4987045;28;20355;-73
2023/12/22 00:27:29;;;;;;;11.93;2.42;;;;;;;4.26;100.00;99823.63;5009724;28;20056;-73
2023/12/22 00:30:15;;;;;;;14.18;3.17;;;;;;;4.32;100.00;99812.91;4980868;28;20161;-73
2023/12/22 00:33:01;;;;;;;12.02;2.55;;;;;;;4.40;100.00;99831.84;5010534;28;20560;-72
2023/12/22 00:35:46;;;;;;;9.43;2.15;;;;;;;4.48;100.00;99821.91;4985685;28;20041;-72
2023/12/22 00:38:32;;;;;;;9.93;2.10;;;;;;;4.60;100.00;99851.22;4985550;28;20045;-72
2023/12/22 00:41:17;;;;;;;16.25;3.25;;;;;;;4.67;100.00;99838.75;5011121;28;20045;-73
2023/12/22 00:44:03;;;;;;;9.35;1.80;;;;;;;4.80;100.00;99833.91;4995762;28;20048;-73
2023/12/22 00:46:48;;;;;;;12.55;2.30;;;;;;;4.88;100.00;99852.84;4981997;28;20049;-72
2023/12/22 00:49:33;;;;;;;8.65;1.85;;;;;;;4.96;100.00;99856.00;4984441;28;20176;-74
2023/12/22 00:52:19;;;;;;;8.48;1.85;;;;;;;4.96;100.00;99856.00;4984503;28;20041;-74
2023/12/22 00:55:04;;;;;;;10.95;2.05;;;;;;;4.96;100.00;99863.88;4984831;28;20294;-74
2023/12/22 00:57:50;;;;;;;10.48;2.10;;;;;;;4.93;100.00;99871.88;4994318;28;20187;-74
2023/12/22 01:00:35;;;;;;;8.50;1.92;;;;;;;4.98;100.00;99884.81;4982055;28;20286;-73
2023/12/22 01:03:21;;;;;;;8.55;1.73;;;;;;;5.01;100.00;99867.19;4984225;28;20050;-73
2023/12/22 01:06:06;;;;;;;13.35;2.00;;;;;;;4.96;100.00;99856.00;4984121;28;20110;-73
2023/12/22 01:08:52;;;;;;;12.38;1.85;;;;;;;4.93;100.00;99868.38;4984478;28;20097;-72
2023/12/22 01:11:37;;;;;;;7.20;1.52;;;;;;;4.89;100.00;99871.16;5004712;28;20209;-73
2023/12/22 01:14:22;;;;;;;13.98;2.72;;;;;;;4.89;100.00;99873.75;4983960;28;20052;-73
2023/12/22 01:17:08;;;;;;;16.27;2.58;;;;;;;4.91;100.00;99884.22;5003041;28;20046;-74
2023/12/22 01:19:53;;;;;;;12.15;3.53;;;;;;;4.89;100.00;99859.78;5008743;28;20056;-73
2023/12/22 01:22:39;;;;;;;14.35;2.53;;;;;;;4.87;100.00;99872.97;4992965;28;21477;-73
2023/12/22 01:25:24;;;;;;;13.23;2.65;;;;;;;4.89;100.00;99886.00;4981237;28;20038;-73
2023/12/22 01:28:10;;;;;;;11.63;2.15;;;;;;;4.89;100.00;99896.50;4985961;28;20042;-74
2023/12/22 01:30:58;;;;;;;16.15;2.97;;;;;;;4.92;100.00;99870.19;4984150;28;20050;-73
2023/12/22 01:33:43;;;;;;;16.05;2.80;;;;;;;4.96;100.00;99882.25;4982128;28;20125;-74
2023/12/22 01:36:28;;;;;;;6.97;2.10;;;;;;;4.97;100.00;99891.81;4981664;28;20642;-73
2023/12/22 01:39:14;;;;;;;13.20;2.42;;;;;;;4.99;100.00;99876.03;4984015;28;20213;-73
2023/12/22 01:41:59;;;;;;;11.98;2.08;;;;;;;5.01;100.00;99880.31;5006506;28;20068;-75
2023/12/22 01:44:45;;;;;;;10.68;2.15;;;;;;;5.02;100.00;99879.41;5008250;28;20037;-73
2023/12/22 01:47:30;;;;;;;11.88;2.35;;;;;;;4.96;100.00;99871.75;4984608;28;20050;-74
2023/12/22 01:50:16;;;;;;;15.40;2.97;;;;;;;4.92;100.00;99870.19;4993452;28;21707;-73
2023/12/22 01:53:02;;;;;;;9.75;2.15;;;;;;;4.88;100.00;99877.31;4996856;28;20045;-73
2023/12/22 01:55:49;;;;;;;10.93;1.80;;;;;;;4.93;100.00;99897.25;5012241;28;20112;-74
2023/12/22 01:58:36;;;;;;;9.02;1.80;;;;;;;5.00;100.00;99920.59;4984275;28;20866;-73
2023/12/22 02:01:22;;;;;;;14.45;2.55;;;;;;;5.05;100.00;99927.44;4984753;28;20417;-73
2023/12/22 02:04:08;;;;;;;9.85;2.17;;;;;;;4.91;100.00;99913.06;4981074;28;20046;-73
2023/12/22 02:06:53;;;;;;;4.07;1.15;;;;;;;4.68;100.00;99904.25;5008388;28;20046;-73
2023/12/22 02:09:38;;;;;;;3.67;1.20;;;;;;;4.52;100.00;99901.31;4987292;28;20054;-73
2023/12/22 02:12:26;;;;;;;5.07;1.35;;;;;;;4.41;100.00;99904.31;4986662;28;20176;-73
2023/12/22 02:15:12;;;;;;;6.40;1.30;;;;;;;4.35;100.00;99904.53;4984291;28;20057;-72
2023/12/22 02:18:14;;;;;;;6.05;1.52;;;;;;;4.34;100.00;99901.06;4989059;28;20159;-73
2023/12/22 02:20:59;;;;;;;5.68;1.48;;;;;;;4.43;100.00;99899.88;5012978;28;20172;-72
2023/12/22 02:23:47;;;;;;;4.85;1.25;;;;;;;4.52;100.00;99909.16;5011754;28;20126;-72
2023/12/22 02:26:37;;;;;;;11.57;2.13;;;;;;;4.60;100.00;99920.28;4996980;28;20037;-73
2023/12/22 02:29:24;;;;;;;6.18;1.25;;;;;;;4.73;100.00;99932.91;4984962;28;20056;-73
2023/12/22 02:32:17;;;;;;;8.48;1.50;;;;;;;4.74;100.00;99938.13;4994086;28;20481;-74
2023/12/22 02:35:10;;;;;;;6.90;1.52;;;;;;;4.65;100.00;99930.59;4980448;28;20504;-73
2023/12/22 02:37:57;;;;;;;7.20;1.48;;;;;;;4.54;100.00;99928.34;5010823;28;20137;-74
2023/12/22 02:40:44;;;;;;;11.10;1.63;;;;;;;4.46;100.00;99936.47;5010259;28;21352;-74
2023/12/22 02:43:31;;;;;;;2.33;1.20;;;;;;;4.41;100.00;99917.41;4985733;28;20072;-75
2023/12/22 02:46:17;;;;;;;6.35;1.33;;;;;;;4.32;100.00;99923.81;5011134;28;20088;-73
2023/12/22 02:49:02;;;;;;;7.32;1.48;;;;;;;4.20;100.00;99908.53;5009235;28;20042;-73
2023/12/22 02:51:50;;;;;;;9.77;1.98;;;;;;;4.08;100.00;99917.66;4986581;28;20037;-75
2023/12/22 02:54:35;;;;;;;4.82;1.13;;;;;;;3.99;100.00;99908.34;4986765;28;20050;-74
2023/12/22 02:57:21;;;;;;;5.90;1.40;;;;;;;3.92;100.00;99899.81;4985014;28;20046;-74
2023/12/22 03:00:07;;;;;;;12.27;2.45;;;;;;;3.92;100.00;99902.44;4987084;28;20145;-74
2023/12/22 03:02:52;;;;;;;10.45;1.98;;;;;;;3.92;100.00;99912.91;4986973;28;20072;-75
2023/12/22 03:05:40;;;;;;;5.18;1.45;;;;;;;3.97;100.00;99906.69;4983156;28;20129;-75
2023/12/22 03:08:26;;;;;;;8.32;2.38;;;;;;;4.03;100.00;99906.50;4985316;28;20138;-73
2023/12/22 03:11:11;;;;;;;7.95;1.58;;;;;;;4.06;100.00;99890.66;4986919;28;20049;-73
2023/12/22 03:13:59;;;;;;;7.20;1.52;;;;;;;4.05;100.00;99899.44;4983368;28;20424;-73
2023/12/22 03:16:44;;;;;;;7.20;1.52;;;;;;;4.06;100.00;99904.63;4986850;28;20053;-72
2023/12/22 03:19:30;;;;;;;10.38;2.78;;;;;;;4.10;100.00;99902.75;4996406;28;20042;-73
2023/12/22 03:22:16;;;;;;;9.15;1.75;;;;;;;4.13;100.00;99897.41;5009793;28;20448;-73
2023/12/22 03:25:01;;;;;;;6.45;1.75;;;;;;;4.19;100.00;99896.31;4986944;28;20052;-73
2023/12/22 03:27:46;;;;;;;11.07;1.80;;;;;;;4.26;100.00;99912.72;4985633;28;20724;-74
2023/12/22 03:30:32;;;;;;;8.77;1.50;;;;;;;4.30;100.00;99909.09;4983850;28;20405;-72
2023/12/22 03:33:17;;;;;;;10.38;1.75;;;;;;;4.34;100.00;99916.78;4985858;28;20164;-72
2023/12/22 03:36:05;;;;;;;10.07;1.77;;;;;;;4.40;100.00;99905.22;4985563;28;20081;-74
2023/12/22 03:38:51;;;;;;;14.10;2.53;;;;;;;4.43;100.00;99897.28;4977383;28;20042;-73
2023/12/22 03:41:36;;;;;;;11.05;1.60;;;;;;;4.41;100.00;99909.56;4984655;28;20037;-74
2023/12/22 03:44:21;;;;;;;9.32;1.58;;;;;;;4.39;100.00;99911.38;4983694;28;20132;-72
2023/12/22 03:47:07;;;;;;;8.73;1.45;;;;;;;4.45;100.00;99915.53;4983548;28;20045;-73
2023/12/22 03:49:52;;;;;;;13.50;2.15;;;;;;;4.52;100.00;99927.53;4983104;28;20049;-73
2023/12/22 03:52:38;;;;;;;7.45;1.67;;;;;;;4.55;100.00;99924.81;5010379;28;20073;-72
2023/12/22 03:55:23;;;;;;;13.70;2.22;;;;;;;4.58;100.00;99910.75;4985079;28;20041;-73
2023/12/22 03:58:10;;;;;;;6.15;1.65;;;;;;;4.62;100.00;99921.06;4986175;28;20537;-74
2023/12/22 04:00:56;;;;;;;8.00;1.95;;;;;;;4.66;100.00;99919.19;4984760;28;20038;-74
2023/12/22 04:03:41;;;;;;;8.85;2.42;;;;;;;4.70;100.00;99922.56;4983887;28;20038;-73
2023/12/22 04:06:27;;;;;;;5.35;1.83;;;;;;;4.70;100.00;99920.81;5008686;28;20124;-75
2023/12/22 04:09:12;;;;;;;10.27;2.08;;;;;;;4.72;100.00;99954.81;4985738;28;20058;-74
2023/12/22 04:11:57;;;;;;;5.72;1.48;;;;;;;4.73;100.00;99957.38;4981279;28;20056;-74
2023/12/22 04:14:43;;;;;;;13.20;2.30;;;;;;;4.78;100.00;99951.13;4984502;28;20149;-74
2023/12/22 04:17:28;;;;;;;11.27;2.15;;;;;;;4.83;100.00;99962.28;5010313;28;20257;-74
2023/12/22 04:20:16;;;;;;;7.97;1.77;;;;;;;4.85;100.00;99969.19;4983182;28;20037;-74
2023/12/22 04:23:02;;;;;;;13.95;2.45;;;;;;;4.87;100.00;99974.41;4986821;28;21709;-75
2023/12/22 04:25:47;;;;;;;7.28;1.73;;;;;;;4.89;100.00;99960.31;4985957;28;20509;-74
2023/12/22 04:28:33;;;;;;;7.60;1.58;;;;;;;4.92;100.00;99954.13;5007141;28;20045;-73
2023/12/22 04:31:18;;;;;;;10.07;1.98;;;;;;;4.92;100.00;99976.84;4984073;28;20136;-74
2023/12/22 04:34:04;;;;;;;11.05;2.38;;;;;;;4.96;100.00;99978.47;5008395;28;20053;-74
2023/12/22 04:36:49;;;;;;;8.30;1.77;;;;;;;4.96;100.00;99984.56;4980626;28;20453;-74
2023/12/22 04:39:35;;;;;;;13.65;2.22;;;;;;;4.97;100.00;99986.25;4984533;28;20049;-74
2023/12/22 04:42:20;;;;;;;9.27;1.75;;;;;;;4.97;100.00;99974.94;4983823;28;20139;-75
2023/12/22 04:45:06;;;;;;;9.15;1.50;;;;;;;4.99;100.00;99975.72;4980924;28;20104;-74
2023/12/22 04:47:51;;;;;;;8.18;1.58;;;;;;;5.02;100.00;99989.59;4981553;28;20046;-75
2023/12/22 04:50:36;;;;;;;9.32;2.35;;;;;;;5.06;100.00;99971.97;4984534;28;20069;-75
2023/12/22 04:53:22;;;;;;;7.38;1.85;;;;;;;5.09;100.00;99978.88;4980228;28;20049;-75
2023/12/22 04:56:07;;;;;;;9.02;1.70;;;;;;;5.09;100.00;99982.38;5009374;28;20045;-74
2023/12/22 04:58:52;;;;;;;5.95;1.58;;;;;;;5.13;100.00;99994.44;4985147;28;20033;-75
2023/12/22 05:01:38;;;;;;;6.47;1.70;;;;;;;5.19;100.00;99984.63;4982564;28;20052;-74
2023/12/22 05:04:23;;;;;;;9.93;2.00;;;;;;;5.18;100.00;99983.81;4980660;28;20046;-73
2023/12/22 05:07:16;;;;;;;13.07;2.00;;;;;;;5.21;100.00;99986.31;4982028;28;20050;-73
2023/12/22 05:10:02;;;;;;;7.57;2.20;;;;;;;5.24;100.00;99990.59;4993703;28;20042;-74
2023/12/22 05:12:48;;;;;;;6.65;1.50;;;;;;;5.25;100.00;99977.41;4979113;28;20061;-75
2023/12/22 05:15:33;;;;;;;11.45;1.95;;;;;;;5.25;100.00;100006.28;4981497;28;20780;-74
2023/12/22 05:18:19;;;;;;;8.43;1.77;;;;;;;5.24;100.00;99986.16;4985561;28;20096;-75
2023/12/22 05:21:04;;;;;;;11.18;2.67;;;;;;;5.26;100.00;99997.50;4986412;28;20085;-74
2023/12/22 05:23:50;;;;;;;5.05;1.45;;;;;;;5.25;100.00;100003.66;4986334;28;20038;-74
2023/12/22 05:26:35;;;;;;;9.05;1.55;;;;;;;5.25;100.00;100002.78;4986551;28;20042;-74
2023/12/22 05:29:21;;;;;;;10.77;1.67;;;;;;;5.22;100.00;99998.50;4999301;28;20108;-74
2023/12/22 05:32:06;;;;;;;9.85;2.22;;;;;;;5.22;100.00;100001.13;4984271;28;20044;-74
2023/12/22 05:34:52;;;;;;;6.32;1.58;;;;;;;5.20;100.00;100007.34;4988481;28;20038;-73
2023/12/22 05:37:37;;;;;;;5.38;1.40;;;;;;;5.26;100.00;100015.88;4983359;28;20053;-73
2023/12/22 05:40:22;;;;;;;8.00;1.50;;;;;;;5.29;100.00;100014.91;4986892;28;20042;-74
2023/12/22 05:43:08;;;;;;;12.48;2.10;;;;;;;5.27;100.00;100011.44;4986681;28;20352;-74
2023/12/22 05:45:53;;;;;;;8.43;1.70;;;;;;;5.26;100.00;100005.38;4986540;28;20033;-74
2023/12/22 05:48:39;;;;;;;8.02;1.77;;;;;;;5.27;100.00;100016.69;4985015;28;20523;-75
2023/12/22 05:51:24;;;;;;;7.78;1.48;;;;;;;5.28;100.00;100002.66;4987637;28;20046;-74
2023/12/22 05:54:11;;;;;;;8.27;1.67;;;;;;;5.27;100.00;100012.31;4972772;28;20139;-74
2023/12/22 05:56:56;;;;;;;6.53;1.70;;;;;;;5.26;100.00;100010.63;4986161;28;20057;-74
2023/12/22 05:59:42;;;;;;;13.20;1.73;;;;;;;5.23;100.00;99994.97;4987762;28;20050;-75
2023/12/22 06:02:27;;;;;;;9.10;1.38;;;;;;;5.25;100.00;99985.28;4988008;28;20182;-74
2023/12/22 06:05:13;;;;;;;7.22;1.42;;;;;;;5.25;100.00;99987.03;4986624;28;20157;-73
2023/12/22 06:07:58;;;;;;;3.83;1.60;;;;;;;5.26;100.00;99991.38;4984696;28;20057;-74
2023/12/22 06:10:44;;;;;;;6.50;1.70;;;;;;;5.28;100.00;99995.66;4984594;28;20057;-75
2023/12/22 06:13:29;;;;;;;10.57;1.67;;;;;;;5.32;100.00;100013.94;4987920;28;20058;-73
2023/12/22 06:16:15;;;;;;;8.32;1.88;;;;;;;5.33;100.00;99995.47;4986979;28;20995;-75
2023/12/22 06:19:00;;;;;;;14.50;1.65;;;;;;;5.36;100.00;99991.88;4996225;28;20042;-74
2023/12/22 06:21:46;;;;;;;7.82;1.60;;;;;;;5.40;100.00;100002.22;4987319;28;20073;-75
2023/12/22 06:24:31;;;;;;;7.82;1.58;;;;;;;5.45;100.00;99999.41;4986702;28;20054;-75
2023/12/22 06:27:17;;;;;;;11.77;1.77;;;;;;;5.48;100.00;100003.69;4984976;28;20077;-74
2023/12/22 06:30:06;;;;;;;7.45;1.40;;;;;;;5.47;100.00;99997.59;4983599;28;20177;-75
2023/12/22 06:32:51;;;;;;;6.90;1.63;;;;;;;5.44;100.00;100003.81;4996909;28;20049;-73
2023/12/22 06:35:37;;;;;;;9.90;1.80;;;;;;;5.46;100.00;99998.53;4994811;28;20068;-75
2023/12/22 06:38:22;;;;;;;9.27;1.52;;;;;;;5.45;100.00;99994.16;4986528;28;20049;-73
2023/12/22 06:41:21;;;;;;;12.43;1.75;;;;;;;5.43;100.00;99996.00;4997132;28;20122;-74
2023/12/22 06:44:10;;;;;;;8.18;1.40;;;;;;;5.40;100.00;99985.63;5009517;28;20169;-75
2023/12/22 06:46:56;;;;;;;13.00;1.83;;;;;;;5.40;100.00;99985.63;4984852;28;20584;-74
2023/12/22 06:49:41;;;;;;;6.75;1.58;;;;;;;5.40;100.00;99983.00;4986560;28;20555;-75
2023/12/22 06:52:26;;;;;;;9.40;1.73;;;;;;;5.42;100.00;99994.28;4986479;28;20049;-74
2023/12/22 06:55:12;;;;;;;14.93;1.83;;;;;;;5.41;100.00;99997.84;4986812;28;20072;-75
2023/12/22 06:57:57;;;;;;;8.52;1.80;;;;;;;5.40;100.00;99998.75;4984310;28;20053;-74
2023/12/22 07:00:43;;;;;;;12.00;1.83;;;;;;;5.40;100.00;100012.72;4985740;28;20082;-75
2023/12/22 07:03:31;;;;;;;8.30;1.30;;;;;;;5.38;100.00;100017.19;4996164;28;20049;-75
2023/12/22 07:06:17;;;;;;;9.60;1.85;;;;;;;5.39;100.00;100015.41;4983967;28;20041;-76
2023/12/22 07:09:11;;;;;;;6.00;1.60;;;;;;;5.37;100.00;100002.34;4987333;28;20770;-76
2023/12/22 07:11:58;;;;;;;8.93;1.92;;;;;;;5.35;100.00;99996.31;5011765;28;20073;-74
2023/12/22 07:14:43;;;;;;;10.82;2.13;;;;;;;5.32;100.00;100006.06;5011362;28;20041;-76
2023/12/22 07:17:29;;;;;;;9.68;1.90;;;;;;;5.30;100.00;100024.47;4988219;28;20050;-75
2023/12/22 07:20:14;;;;;;;7.38;1.58;;;;;;;5.28;100.00;100016.66;4988111;28;20206;-75
2023/12/22 07:23:00;;;;;;;10.18;2.00;;;;;;;5.30;100.00;100012.19;4984250;28;20050;-75
2023/12/22 07:25:45;;;;;;;8.73;1.65;;;;;;;5.33;100.00;100016.47;4997463;28;20053;-75
2023/12/22 07:28:30;;;;;;;10.30;1.88;;;;;;;5.35;100.00;100009.44;4987025;28;20042;-74
2023/12/22 07:31:16;;;;;;;4.95;1.40;;;;;;;5.39;100.00;100002.28;4986103;28;20132;-75
2023/12/22 07:34:01;;;;;;;6.85;1.40;;;;;;;5.44;100.00;100005.56;4984085;28;20481;-75
2023/12/22 07:36:47;;;;;;;7.78;1.83;;;;;;;5.47;100.00;100013.34;4985764;28;20065;-75
2023/12/22 07:39:32;;;;;;;9.35;1.48;;;;;;;5.48;100.00;100030.81;4984875;28;20046;-75
2023/12/22 07:42:17;;;;;;;5.75;1.33;;;;;;;5.49;100.00;100044.81;4987269;28;20061;-75
2023/12/22 07:45:04;;;;;;;6.15;1.50;;;;;;;5.49;100.00;100047.44;4985294;28;20171;-76
2023/12/22 07:47:50;;;;;;;7.20;1.30;;;;;;;5.49;100.00;100037.78;4992673;28;21338;-76
2023/12/22 07:50:36;;;;;;;4.47;1.23;;;;;;;5.50;100.00;100043.91;4986648;28;20038;-73
2023/12/22 07:53:21;;;;;;;6.18;1.17;;;;;;;5.49;100.00;100048.28;4995258;28;20033;-73
2023/12/22 07:56:07;;;;;;;7.85;1.20;;;;;;;5.50;100.00;100047.38;5006537;28;20044;-73
2023/12/22 07:58:53;;;;;;;5.32;1.15;;;;;;;5.49;100.00;100036.94;5011553;28;20045;-73
2023/12/22 08:01:39;;;;;;;5.57;1.20;;;;;;;5.42;100.00;100052.03;4980517;28;20159;-73
2023/12/22 08:04:25;;;;;;;4.57;1.25;;;;;;;5.36;100.00;100036.50;4994881;28;20148;-74
2023/12/22 08:07:11;;;;;;;5.85;1.00;;;;;;;5.28;100.00;100037.66;4981664;28;20514;-73
2023/12/22 08:09:56;;;;;;;2.10;1.15;;;;;;;5.20;100.00;100041.47;5009926;28;20188;-73
2023/12/22 08:12:42;;;;;;;2.55;0.70;;;;;;;5.14;100.00;100058.28;5008589;28;20081;-74
2023/12/22 08:15:27;;;;;;;2.45;1.00;;;;;;;5.08;100.00;100053.25;4984670;28;20172;-74
2023/12/22 08:18:13;;;;;;;2.08;0.80;;;;;;;5.03;100.00;100046.38;4981272;28;20464;-73
2023/12/22 08:20:58;;;;;;;1.17;0.70;;;;;;;5.00;100.00;100049.13;4981507;28;20477;-73
2023/12/22 08:23:44;;;;;;;4.53;1.25;;;;;;;4.98;100.00;100034.34;4982646;28;20088;-75
2023/12/22 08:26:29;;;;;;;5.47;1.10;;;;;;;4.95;100.00;100037.94;4983217;28;20030;-75
2023/12/22 08:29:15;;;;;;;5.63;0.90;;;;;;;4.92;100.00;100026.69;4986062;28;20082;-74
2023/12/22 08:32:01;;;;;;;5.20;1.05;;;;;;;4.90;100.00;100008.38;4981929;28;20820;-75
2023/12/22 08:34:46;;;;;;;2.92;0.82;;;;;;;4.88;100.00;100016.31;5007796;28;20556;-74
2023/12/22 08:37:32;;;;;;;1.95;0.90;;;;;;;4.88;100.00;100010.22;5007355;28;20168;-73
2023/12/22 08:40:17;;;;;;;2.53;0.90;;;;;;;4.86;100.00;100020.75;4981779;28;20041;-73
2023/12/22 08:43:03;;;;;;;8.63;1.20;;;;;;;4.85;100.00;100036.56;4984846;28;20061;-74
2023/12/22 08:45:48;;;;;;;7.00;1.05;;;;;;;4.85;100.00;100016.41;4981541;28;20069;-74
2023/12/22 08:48:34;;;;;;;2.60;1.00;;;;;;;4.87;100.00;100019.00;5006258;28;20050;-74
2023/12/22 08:51:19;;;;;;;4.82;1.02;;;;;;;4.86;100.00;100015.50;4984290;28;20133;-75
2023/12/22 08:54:04;;;;;;;4.47;1.35;;;;;;;4.89;100.00;100025.03;4984295;28;20484;-75
2023/12/22 08:56:50;;;;;;;7.72;1.30;;;;;;;4.90;100.00;100021.50;4986342;28;20045;-74
2023/12/22 08:59:35;;;;;;;9.05;1.42;;;;;;;4.91;100.00;100012.75;5009239;28;20701;-74
2023/12/22 09:02:21;;;;;;;7.53;1.58;;;;;;;4.93;100.00;100020.53;4986360;28;20038;-75
2023/12/22 09:05:07;;;;;;;4.80;1.40;;;;;;;4.95;100.00;100027.44;4986060;28;22443;-75
2023/12/22 09:07:52;;;;;;;4.60;1.15;;;;;;;4.98;100.00;100019.47;4981719;28;20055;-74
2023/12/22 09:10:39;;;;;;;5.63;1.30;;;;;;;5.00;100.00;100009.78;4983305;28;20170;-74
2023/12/22 09:13:25;;;;;;;7.72;1.67;;;;;;;5.05;100.00;100008.78;4979741;28;20049;-75
2023/12/22 09:16:11;;;;;;;8.30;1.58;;;;;;;5.08;100.00;100000.78;4983287;28;20518;-74
2023/12/22 09:18:56;;;;;;;5.72;1.73;;;;;;;5.14;100.00;100005.81;4983425;28;20042;-74
2023/12/22 09:21:44;;;;;;;7.80;1.60;;;;;;;5.20;100.00;100009.97;4983931;28;21405;-74
2023/12/22 09:24:29;;;;;;;6.95;1.33;;;;;;;5.24;100.00;100012.41;4985568;28;20128;-73
2023/12/22 09:27:14;;;;;;;9.13;1.38;;;;;;;5.28;100.00;100013.16;4981247;28;20330;-73
2023/12/22 09:30:00;;;;;;;8.48;1.48;;;;;;;5.31;100.00;100015.69;4981292;28;20421;-74
2023/12/22 09:32:45;;;;;;;4.30;1.30;;;;;;;5.34;100.00;100023.44;4981761;28;20049;-73
2023/12/22 09:35:31;;;;;;;7.30;1.50;;;;;;;5.39;100.00;100021.50;5007395;28;20041;-71
2023/12/22 09:38:16;;;;;;;6.35;1.70;;;;;;;5.42;100.00;100021.41;4983952;28;20141;-73
2023/12/22 09:41:02;;;;;;;6.35;2.00;;;;;;;5.44;100.00;100010.81;4983212;28;20119;-74
2023/12/22 09:43:49;;;;;;;6.93;1.35;;;;;;;5.46;100.00;100011.66;4984957;28;20789;-74
2023/12/22 09:46:35;;;;;;;9.63;1.70;;;;;;;5.47;100.00;100005.47;5007564;28;20497;-73
2023/12/22 09:49:21;;;;;;;7.15;1.35;;;;;;;5.47;100.00;99992.34;4979006;28;20745;-74
2023/12/22 09:52:07;;;;;;;8.20;1.35;;;;;;;5.47;100.00;99997.59;4982266;28;20041;-74
2023/12/22 09:54:54;;;;;;;7.90;1.63;;;;;;;5.48;100.00;100001.94;4985087;28;20117;-74
2023/12/22 09:57:40;;;;;;;10.23;1.83;;;;;;;5.50;100.00;100013.22;4979171;28;20026;-73
2023/12/22 10:00:31;;;;;;;6.88;1.80;;;;;;;5.51;100.00;100001.81;5002939;28;20069;-74
2023/12/22 10:03:18;;;;;;;10.80;1.88;;;;;;;5.52;100.00;100010.56;4974703;28;20042;-74
2023/12/22 10:06:04;;;;;;;10.68;1.98;;;;;;;5.54;100.00;100004.34;4976896;28;20045;-73
2023/12/22 10:08:51;;;;;;;9.15;2.08;;;;;;;5.55;100.00;100003.41;4977946;28;20048;-74
2023/12/22 10:11:37;;;;;;;8.98;1.83;;;;;;;5.60;100.00;100005.03;4992010;28;20769;-72
2023/12/22 10:14:23;;;;;;;6.82;1.70;;;;;;;5.60;100.00;99997.97;5010668;28;20459;-72
2023/12/22 10:17:11;;;;;;;8.07;1.70;;;;;;;5.64;100.00;100001.34;4986718;28;20044;-73
2023/12/22 10:19:56;;;;;;;8.15;1.80;;;;;;;5.66;100.00;99989.03;5010292;28;20056;-73
2023/12/22 10:22:42;;;;;;;10.93;2.20;;;;;;;5.68;100.00;99980.16;4978905;28;22372;-74
2023/12/22 10:25:29;;;;;;;9.05;1.90;;;;;;;5.72;100.00;99970.38;4996874;28;20056;-74
2023/12/22 10:28:15;;;;;;;14.05;2.00;;;;;;;5.75;100.00;99972.91;5005517;28;20049;-75
2023/12/22 10:31:06;;;;;;;5.65;1.55;;;;;;;5.78;100.00;99969.31;4984837;28;20057;-73
2023/12/22 10:33:51;;;;;;;9.70;2.30;;;;;;;5.82;100.00;99977.00;4980511;28;20381;-74
2023/12/22 10:36:36;;;;;;;9.52;1.90;;;;;;;5.85;100.00;99981.28;5007152;28;20037;-73
2023/12/22 10:39:22;;;;;;;10.45;2.47;;;;;;;5.87;100.00;99963.69;4983541;28;20049;-73
2023/12/22 10:42:07;;;;;;;11.15;2.30;;;;;;;5.91;100.00;99946.00;4980551;28;20148;-73
2023/12/22 10:44:53;;;;;;;10.20;1.98;;;;;;;5.92;100.00;99952.97;4981091;28;20795;-74
2023/12/22 10:47:39;;;;;;;10.75;1.95;;;;;;;5.94;100.00;99961.66;5006990;28;20053;-74
2023/12/22 10:50:25;;;;;;;6.53;1.55;;;;;;;5.95;100.00;99964.22;4980272;28;20044;-74
2023/12/22 10:53:11;;;;;;;4.85;1.27;;;;;;;6.00;100.00;99973.69;4981475;28;20037;-74
2023/12/22 10:55:57;;;;;;;5.32;1.20;;;;;;;6.02;100.00;99963.97;4982729;28;20048;-74
2023/12/22 10:58:45;;;;;;;7.57;1.40;;;;;;;6.06;100.00;99974.31;5002983;28;20077;-74
2023/12/22 11:01:33;;;;;;;7.10;1.42;;;;;;;6.10;100.00;99978.53;4982032;28;20042;-75
2023/12/22 11:04:20;;;;;;;10.05;0.95;;;;;;;6.15;100.00;99972.25;5001652;28;20133;-74
2023/12/22 11:07:07;;;;;;;6.32;1.30;;;;;;;6.17;100.00;99978.31;4988306;28;20045;-74
2023/12/22 11:09:54;;;;;;;3.40;0.95;;;;;;;6.21;100.00;99972.84;5010939;28;20049;-74
2023/12/22 11:12:41;;;;;;;5.53;1.45;;;;;;;6.23;100.00;99965.75;4995626;28;20053;-73
2023/12/22 11:15:27;;;;;;;3.30;0.90;;;;;;;6.26;100.00;99954.25;5010672;28;20150;-73
2023/12/22 11:18:15;;;;;;;3.53;1.83;;;;;;;6.28;100.00;99949.81;4984145;28;20065;-74
2023/12/22 11:21:01;;;;;;;3.22;1.02;;;;;;;6.30;100.00;99954.97;5000531;28;20148;-73
2023/12/22 11:23:47;;;;;;;6.47;1.25;;;;;;;6.32;100.00;99961.03;5005482;28;20641;-73
2023/12/22 11:26:33;;;;;;;3.45;1.20;;;;;;;6.35;100.00;99968.78;5008463;28;20156;-75
2023/12/22 11:29:20;;;;;;;4.78;1.05;;;;;;;6.35;100.00;99953.88;5004804;28;20485;-74
2023/12/22 11:32:07;;;;;;;7.15;1.45;;;;;;;6.35;100.00;99943.38;5006402;28;20045;-75
2023/12/22 11:34:53;;;;;;;5.47;1.30;;;;;;;6.35;100.00;99935.47;4973507;28;20042;-73
2023/12/22 11:37:39;;;;;;;1.45;0.82;;;;;;;6.36;100.00;99944.22;5007550;28;20450;-75
2023/12/22 11:40:24;;;;;;;4.50;1.05;;;;;;;6.38;100.00;99934.50;4981682;28;20686;-75
2023/12/22 11:43:10;;;;;;;4.88;1.23;;;;;;;6.39;100.00;99941.47;4982764;28;20129;-75
2023/12/22 11:45:56;;;;;;;6.25;1.65;;;;;;;6.41;100.00;99946.63;4987722;28;20146;-75
2023/12/22 11:48:51;;;;;;;7.18;1.60;;;;;;;6.42;100.00;99948.38;4980259;28;20131;-74
2023/12/22 11:51:38;;;;;;;7.68;1.45;;;;;;;6.42;100.00;99938.69;5004769;28;20108;-73
2023/12/22 11:54:56;;;;;;;7.75;1.42;;;;;;;6.44;100.00;99925.47;4983488;28;20069;-74
2023/12/22 11:57:41;;;;;;;5.22;1.33;;;;;;;6.44;100.00;99921.09;4973049;28;20394;-73
2023/12/22 12:00:27;;;;;;;3.78;1.20;;;;;;;6.46;100.00;99931.53;4982441;28;20132;-74
2023/12/22 12:03:12;;;;;;;6.45;2.03;;;;;;;6.47;100.00;99943.75;4993061;28;20033;-73
2023/12/22 12:06:13;;;;;;;9.23;1.25;;;;;;;6.47;100.00;99931.47;4986202;28;20038;-74
2023/12/22 12:09:01;;;;;;;6.75;1.20;;;;;;;6.47;100.00;99930.59;4981697;28;20532;-73
2023/12/22 12:11:52;;;;;;;8.20;0.95;;;;;;;6.46;100.00;99916.63;4985520;28;20050;-73
2023/12/22 12:14:41;;;;;;;6.55;1.45;;;;;;;6.45;100.00;99906.16;5010120;28;20038;-74
2023/12/22 12:17:28;;;;;;;7.03;1.70;;;;;;;6.45;100.00;99906.16;4983178;28;21221;-74
2023/12/22 12:20:14;;;;;;;3.40;1.23;;;;;;;6.45;100.00;99900.91;4983854;28;20068;-74
2023/12/22 12:23:02;;;;;;;2.35;1.10;;;;;;;6.48;100.00;99908.66;4978146;28;20038;-72
2023/12/22 12:25:48;;;;;;;5.20;1.65;;;;;;;6.45;100.00;99914.03;4978076;28;20396;-74
2023/12/22 12:28:35;;;;;;;5.40;1.48;;;;;;;6.45;100.00;99924.56;4984578;28;20822;-74
2023/12/22 12:31:35;;;;;;;10.15;1.25;;;;;;;6.44;100.00;99925.47;5003822;28;20041;-74
2023/12/22 12:34:22;;;;;;;4.90;1.35;;;;;;;6.44;100.00;99912.34;5001629;28;20977;-72
2023/12/22 12:37:08;;;;;;;3.58;1.33;;;;;;;6.42;100.00;99901.03;4980390;28;20065;-72
2023/12/22 12:39:59;;;;;;;6.20;1.10;;;;;;;6.38;100.00;99888.00;5002246;28;20124;-73
2023/12/22 12:42:45;;;;;;;5.45;0.98;;;;;;;6.36;100.00;99881.97;4973630;28;20051;-73
2023/12/22 12:45:30;;;;;;;4.43;1.48;;;;;;;6.35;100.00;99869.75;4975712;28;20048;-72
2023/12/22 12:48:17;;;;;;;9.38;1.48;;;;;;;6.35;100.00;99882.91;5002017;28;20046;-73
2023/12/22 12:51:10;;;;;;;7.55;1.85;;;;;;;6.34;100.00;99898.72;5000125;28;20528;-74
2023/12/22 12:53:56;;;;;;;9.35;2.33;;;;;;;6.32;100.00;99898.78;4982071;28;20042;-73
2023/12/22 12:56:45;;;;;;;8.80;1.63;;;;;;;6.29;100.00;99877.91;4981038;28;20080;-73
2023/12/22 12:59:31;;;;;;;4.13;1.08;;;;;;;6.25;100.00;99882.44;4982768;28;20091;-74